sensor_id;sensor_type;location;lat;lon;timestamp;P1;durP1;ratioP1;P2;durP2;ratioP2
44110;SDS011;29774;52.664;5.074;2024-02-28T00:00:27;4.20;;;2.97;;
44110;SDS011;29774;52.664;5.074;2024-02-28T00:02:53;6.35;;;3.38;;
44110;SDS011;29774;52.664;5.074;2024-02-28T00:05:18;4.32;;;2.90;;
44110;SDS011;29774;52.664;5.074;2024-02-28T00:07:44;7.90;;;3.75;;
44110;SDS011;29774;52.664;5.074;2024-02-28T00:10:11;7.90;;;4.22;;
44110;SDS011;29774;52.664;5.074;2024-02-28T00:12:36;4.40;;;3.53;;
44110;SDS011;29774;52.664;5.074;2024-02-28T00:15:04;6.22;;;3.28;;
44110;SDS011;29774;52.664;5.074;2024-02-28T00:17:30;6.43;;;3.28;;
44110;SDS011;29774;52.664;5.074;2024-02-28T00:19:56;6.13;;;3.35;;
44110;SDS011;29774;52.664;5.074;2024-02-28T00:22:21;5.68;;;3.53;;
44110;SDS011;29774;52.664;5.074;2024-02-28T00:24:47;5.85;;;3.80;;
44110;SDS011;29774;52.664;5.074;2024-02-28T00:27:13;4.78;;;3.67;;
44110;SDS011;29774;52.664;5.074;2024-02-28T00:29:39;6.15;;;3.83;;
44110;SDS011;29774;52.664;5.074;2024-02-28T00:32:04;7.85;;;4.05;;
44110;SDS011;29774;52.664;5.074;2024-02-28T00:34:30;6.32;;;3.38;;
44110;SDS011;29774;52.664;5.074;2024-02-28T00:36:56;7.53;;;3.25;;
44110;SDS011;29774;52.664;5.074;2024-02-28T00:39:21;5.70;;;3.22;;
44110;SDS011;29774;52.664;5.074;2024-02-28T00:41:47;4.15;;;2.97;;
44110;SDS011;29774;52.664;5.074;2024-02-28T00:44:13;4.82;;;3.03;;
44110;SDS011;29774;52.664;5.074;2024-02-28T00:46:39;6.05;;;3.03;;
44110;SDS011;29774;52.664;5.074;2024-02-28T00:49:04;3.17;;;2.88;;
44110;SDS011;29774;52.664;5.074;2024-02-28T00:51:30;5.82;;;4.00;;
44110;SDS011;29774;52.664;5.074;2024-02-28T00:53:56;4.18;;;3.20;;
44110;SDS011;29774;52.664;5.074;2024-02-28T00:56:21;7.00;;;3.47;;
44110;SDS011;29774;52.664;5.074;2024-02-28T00:58:47;8.15;;;3.33;;
44110;SDS011;29774;52.664;5.074;2024-02-28T01:01:12;4.82;;;3.63;;
44110;SDS011;29774;52.664;5.074;2024-02-28T01:03:38;4.63;;;3.22;;
44110;SDS011;29774;52.664;5.074;2024-02-28T01:06:04;4.38;;;2.42;;
44110;SDS011;29774;52.664;5.074;2024-02-28T01:08:30;6.45;;;2.90;;
44110;SDS011;29774;52.664;5.074;2024-02-28T01:10:55;7.40;;;3.15;;
44110;SDS011;29774;52.664;5.074;2024-02-28T01:13:21;4.38;;;3.22;;
44110;SDS011;29774;52.664;5.074;2024-02-28T01:15:48;4.60;;;3.15;;
44110;SDS011;29774;52.664;5.074;2024-02-28T01:18:13;4.88;;;3.17;;
44110;SDS011;29774;52.664;5.074;2024-02-28T01:20:39;4.97;;;2.70;;
44110;SDS011;29774;52.664;5.074;2024-02-28T01:23:04;4.45;;;3.60;;
44110;SDS011;29774;52.664;5.074;2024-02-28T01:25:30;3.78;;;2.88;;
44110;SDS011;29774;52.664;5.074;2024-02-28T01:27:56;6.95;;;3.47;;
44110;SDS011;29774;52.664;5.074;2024-02-28T01:30:24;5.78;;;3.55;;
44110;SDS011;29774;52.664;5.074;2024-02-28T01:32:50;3.97;;;3.22;;
44110;SDS011;29774;52.664;5.074;2024-02-28T01:35:16;5.28;;;3.63;;
44110;SDS011;29774;52.664;5.074;2024-02-28T01:37:42;9.85;;;3.70;;
44110;SDS011;29774;52.664;5.074;2024-02-28T01:40:08;5.32;;;3.15;;
44110;SDS011;29774;52.664;5.074;2024-02-28T01:42:33;4.82;;;3.33;;
44110;SDS011;29774;52.664;5.074;2024-02-28T01:45:00;3.97;;;3.47;;
44110;SDS011;29774;52.664;5.074;2024-02-28T01:47:26;6.75;;;3.90;;
44110;SDS011;29774;52.664;5.074;2024-02-28T01:49:51;6.72;;;3.60;;
44110;SDS011;29774;52.664;5.074;2024-02-28T01:52:19;8.00;;;3.88;;
44110;SDS011;29774;52.664;5.074;2024-02-28T01:54:45;6.78;;;3.63;;
44110;SDS011;29774;52.664;5.074;2024-02-28T01:57:11;4.78;;;3.05;;
44110;SDS011;29774;52.664;5.074;2024-02-28T01:59:38;6.47;;;3.95;;
44110;SDS011;29774;52.664;5.074;2024-02-28T02:02:04;5.07;;;3.38;;
44110;SDS011;29774;52.664;5.074;2024-02-28T02:04:29;6.82;;;3.38;;
44110;SDS011;29774;52.664;5.074;2024-02-28T02:06:55;5.50;;;3.38;;
44110;SDS011;29774;52.664;5.074;2024-02-28T02:09:23;8.48;;;3.40;;
44110;SDS011;29774;52.664;5.074;2024-02-28T02:11:50;4.10;;;3.53;;
44110;SDS011;29774;52.664;5.074;2024-02-28T02:14:16;3.63;;;3.33;;
44110;SDS011;29774;52.664;5.074;2024-02-28T02:16:41;5.43;;;3.60;;
44110;SDS011;29774;52.664;5.074;2024-02-28T02:19:08;6.38;;;3.88;;
44110;SDS011;29774;52.664;5.074;2024-02-28T02:21:37;4.93;;;3.78;;
44110;SDS011;29774;52.664;5.074;2024-02-28T02:24:15;7.57;;;3.90;;
44110;SDS011;29774;52.664;5.074;2024-02-28T02:26:41;7.57;;;3.85;;
44110;SDS011;29774;52.664;5.074;2024-02-28T02:29:09;6.93;;;4.38;;
44110;SDS011;29774;52.664;5.074;2024-02-28T02:31:35;9.00;;;4.43;;
44110;SDS011;29774;52.664;5.074;2024-02-28T02:34:00;7.25;;;4.97;;
44110;SDS011;29774;52.664;5.074;2024-02-28T02:36:26;7.00;;;4.90;;
44110;SDS011;29774;52.664;5.074;2024-02-28T02:38:52;7.78;;;5.03;;
44110;SDS011;29774;52.664;5.074;2024-02-28T02:41:17;5.85;;;4.05;;
44110;SDS011;29774;52.664;5.074;2024-02-28T02:43:43;6.90;;;4.50;;
44110;SDS011;29774;52.664;5.074;2024-02-28T02:46:09;6.68;;;5.03;;
44110;SDS011;29774;52.664;5.074;2024-02-28T02:48:34;6.00;;;4.80;;
44110;SDS011;29774;52.664;5.074;2024-02-28T02:51:00;5.45;;;4.50;;
44110;SDS011;29774;52.664;5.074;2024-02-28T02:53:26;7.25;;;5.35;;
44110;SDS011;29774;52.664;5.074;2024-02-28T02:55:52;9.90;;;5.03;;
44110;SDS011;29774;52.664;5.074;2024-02-28T02:58:19;6.75;;;4.72;;
44110;SDS011;29774;52.664;5.074;2024-02-28T03:00:44;5.80;;;5.10;;
44110;SDS011;29774;52.664;5.074;2024-02-28T03:03:10;11.38;;;5.15;;
44110;SDS011;29774;52.664;5.074;2024-02-28T03:05:35;5.47;;;4.90;;
44110;SDS011;29774;52.664;5.074;2024-02-28T03:08:01;8.32;;;6.57;;
44110;SDS011;29774;52.664;5.074;2024-02-28T03:10:27;7.15;;;6.43;;
44110;SDS011;29774;52.664;5.074;2024-02-28T03:12:53;10.43;;;6.95;;
44110;SDS011;29774;52.664;5.074;2024-02-28T03:15:19;9.70;;;6.78;;
44110;SDS011;29774;52.664;5.074;2024-02-28T03:17:45;10.43;;;7.30;;
44110;SDS011;29774;52.664;5.074;2024-02-28T03:20:10;8.90;;;7.85;;
44110;SDS011;29774;52.664;5.074;2024-02-28T03:22:38;8.57;;;6.93;;
44110;SDS011;29774;52.664;5.074;2024-02-28T03:25:04;9.63;;;7.70;;
44110;SDS011;29774;52.664;5.074;2024-02-28T03:27:30;8.43;;;6.93;;
44110;SDS011;29774;52.664;5.074;2024-02-28T03:29:55;9.63;;;6.72;;
44110;SDS011;29774;52.664;5.074;2024-02-28T03:32:21;11.65;;;6.55;;
44110;SDS011;29774;52.664;5.074;2024-02-28T03:34:47;9.70;;;7.05;;
44110;SDS011;29774;52.664;5.074;2024-02-28T03:37:13;8.95;;;6.47;;
44110;SDS011;29774;52.664;5.074;2024-02-28T03:39:39;6.30;;;5.70;;
44110;SDS011;29774;52.664;5.074;2024-02-28T03:42:05;11.63;;;6.28;;
44110;SDS011;29774;52.664;5.074;2024-02-28T03:44:30;9.55;;;6.32;;
44110;SDS011;29774;52.664;5.074;2024-02-28T03:46:56;12.43;;;6.88;;
44110;SDS011;29774;52.664;5.074;2024-02-28T03:49:22;11.40;;;6.95;;
44110;SDS011;29774;52.664;5.074;2024-02-28T03:51:47;8.88;;;6.35;;
44110;SDS011;29774;52.664;5.074;2024-02-28T03:54:13;10.98;;;6.60;;
44110;SDS011;29774;52.664;5.074;2024-02-28T03:56:39;7.90;;;6.60;;
44110;SDS011;29774;52.664;5.074;2024-02-28T03:59:04;9.35;;;7.07;;
44110;SDS011;29774;52.664;5.074;2024-02-28T04:01:30;7.43;;;6.63;;
44110;SDS011;29774;52.664;5.074;2024-02-28T04:03:56;9.50;;;6.95;;
44110;SDS011;29774;52.664;5.074;2024-02-28T04:06:21;10.88;;;6.68;;
44110;SDS011;29774;52.664;5.074;2024-02-28T04:08:47;9.00;;;6.53;;
44110;SDS011;29774;52.664;5.074;2024-02-28T04:11:12;13.07;;;7.45;;
44110;SDS011;29774;52.664;5.074;2024-02-28T04:13:38;8.60;;;6.15;;
44110;SDS011;29774;52.664;5.074;2024-02-28T04:16:04;9.13;;;6.75;;
44110;SDS011;29774;52.664;5.074;2024-02-28T04:18:30;7.30;;;5.50;;
44110;SDS011;29774;52.664;5.074;2024-02-28T04:20:56;8.95;;;6.75;;
44110;SDS011;29774;52.664;5.074;2024-02-28T04:23:22;10.50;;;6.97;;
44110;SDS011;29774;52.664;5.074;2024-02-28T04:25:47;8.50;;;6.53;;
44110;SDS011;29774;52.664;5.074;2024-02-28T04:28:13;9.45;;;6.68;;
44110;SDS011;29774;52.664;5.074;2024-02-28T04:30:38;7.90;;;6.47;;
44110;SDS011;29774;52.664;5.074;2024-02-28T04:33:04;8.90;;;6.88;;
44110;SDS011;29774;52.664;5.074;2024-02-28T04:35:30;12.95;;;6.55;;
44110;SDS011;29774;52.664;5.074;2024-02-28T04:37:55;9.65;;;6.60;;
44110;SDS011;29774;52.664;5.074;2024-02-28T04:40:21;13.50;;;6.63;;
44110;SDS011;29774;52.664;5.074;2024-02-28T04:42:47;10.18;;;7.20;;
44110;SDS011;29774;52.664;5.074;2024-02-28T04:45:12;10.65;;;7.13;;
44110;SDS011;29774;52.664;5.074;2024-02-28T04:47:38;10.00;;;6.45;;
44110;SDS011;29774;52.664;5.074;2024-02-28T04:50:04;11.90;;;7.35;;
44110;SDS011;29774;52.664;5.074;2024-02-28T04:52:31;11.27;;;7.00;;
44110;SDS011;29774;52.664;5.074;2024-02-28T04:54:57;13.73;;;7.20;;
44110;SDS011;29774;52.664;5.074;2024-02-28T04:57:22;8.98;;;7.07;;
44110;SDS011;29774;52.664;5.074;2024-02-28T04:59:48;10.55;;;7.45;;
44110;SDS011;29774;52.664;5.074;2024-02-28T05:02:14;10.63;;;6.75;;
44110;SDS011;29774;52.664;5.074;2024-02-28T05:04:40;13.05;;;7.07;;
44110;SDS011;29774;52.664;5.074;2024-02-28T05:07:05;10.68;;;7.00;;
44110;SDS011;29774;52.664;5.074;2024-02-28T05:09:32;7.82;;;6.18;;
44110;SDS011;29774;52.664;5.074;2024-02-28T05:11:58;9.55;;;6.93;;
44110;SDS011;29774;52.664;5.074;2024-02-28T05:14:24;10.02;;;6.53;;
44110;SDS011;29774;52.664;5.074;2024-02-28T05:16:50;9.55;;;6.75;;
44110;SDS011;29774;52.664;5.074;2024-02-28T05:19:15;11.50;;;7.22;;
44110;SDS011;29774;52.664;5.074;2024-02-28T05:21:44;11.50;;;6.88;;
44110;SDS011;29774;52.664;5.074;2024-02-28T05:24:10;11.65;;;6.07;;
44110;SDS011;29774;52.664;5.074;2024-02-28T05:26:37;9.82;;;5.82;;
44110;SDS011;29774;52.664;5.074;2024-02-28T05:29:03;9.65;;;6.05;;
44110;SDS011;29774;52.664;5.074;2024-02-28T05:31:30;12.25;;;6.47;;
44110;SDS011;29774;52.664;5.074;2024-02-28T05:33:59;9.68;;;5.45;;
44110;SDS011;29774;52.664;5.074;2024-02-28T05:36:27;10.57;;;6.70;;
44110;SDS011;29774;52.664;5.074;2024-02-28T05:38:54;13.27;;;7.47;;
44110;SDS011;29774;52.664;5.074;2024-02-28T05:41:21;12.23;;;7.45;;
44110;SDS011;29774;52.664;5.074;2024-02-28T05:43:47;11.50;;;7.68;;
44110;SDS011;29774;52.664;5.074;2024-02-28T05:46:13;13.93;;;7.32;;
44110;SDS011;29774;52.664;5.074;2024-02-28T05:48:44;16.27;;;7.75;;
44110;SDS011;29774;52.664;5.074;2024-02-28T05:51:10;16.27;;;7.75;;
44110;SDS011;29774;52.664;5.074;2024-02-28T05:53:36;11.23;;;7.70;;
44110;SDS011;29774;52.664;5.074;2024-02-28T05:56:03;13.63;;;6.65;;
44110;SDS011;29774;52.664;5.074;2024-02-28T05:58:38;15.27;;;8.52;;
44110;SDS011;29774;52.664;5.074;2024-02-28T06:01:04;14.52;;;8.43;;
44110;SDS011;29774;52.664;5.074;2024-02-28T06:03:32;14.15;;;8.02;;
44110;SDS011;29774;52.664;5.074;2024-02-28T06:05:58;12.65;;;8.63;;
44110;SDS011;29774;52.664;5.074;2024-02-28T06:08:23;14.00;;;8.98;;
44110;SDS011;29774;52.664;5.074;2024-02-28T06:10:49;15.85;;;10.10;;
44110;SDS011;29774;52.664;5.074;2024-02-28T06:13:14;17.10;;;9.07;;
44110;SDS011;29774;52.664;5.074;2024-02-28T06:15:40;17.27;;;8.95;;
44110;SDS011;29774;52.664;5.074;2024-02-28T06:18:07;14.40;;;8.73;;
44110;SDS011;29774;52.664;5.074;2024-02-28T06:20:32;18.60;;;9.75;;
44110;SDS011;29774;52.664;5.074;2024-02-28T06:22:58;12.20;;;9.38;;
44110;SDS011;29774;52.664;5.074;2024-02-28T06:25:23;11.05;;;8.27;;
44110;SDS011;29774;52.664;5.074;2024-02-28T06:27:49;16.08;;;8.93;;
44110;SDS011;29774;52.664;5.074;2024-02-28T06:30:16;19.30;;;9.65;;
44110;SDS011;29774;52.664;5.074;2024-02-28T06:32:42;16.92;;;8.82;;
44110;SDS011;29774;52.664;5.074;2024-02-28T06:35:08;12.30;;;8.85;;
44110;SDS011;29774;52.664;5.074;2024-02-28T06:37:34;12.68;;;9.50;;
44110;SDS011;29774;52.664;5.074;2024-02-28T06:40:00;16.73;;;9.02;;
44110;SDS011;29774;52.664;5.074;2024-02-28T06:42:29;16.35;;;9.20;;
44110;SDS011;29774;52.664;5.074;2024-02-28T06:44:54;15.93;;;8.52;;
44110;SDS011;29774;52.664;5.074;2024-02-28T06:47:20;15.13;;;10.45;;
44110;SDS011;29774;52.664;5.074;2024-02-28T06:49:46;14.13;;;9.77;;
44110;SDS011;29774;52.664;5.074;2024-02-28T06:52:11;17.45;;;10.02;;
44110;SDS011;29774;52.664;5.074;2024-02-28T06:54:37;18.77;;;11.30;;
44110;SDS011;29774;52.664;5.074;2024-02-28T06:57:03;19.95;;;9.95;;
44110;SDS011;29774;52.664;5.074;2024-02-28T06:59:29;15.35;;;9.95;;
44110;SDS011;29774;52.664;5.074;2024-02-28T07:01:54;18.52;;;9.20;;
44110;SDS011;29774;52.664;5.074;2024-02-28T07:04:20;21.63;;;11.75;;
44110;SDS011;29774;52.664;5.074;2024-02-28T07:06:45;19.45;;;11.30;;
44110;SDS011;29774;52.664;5.074;2024-02-28T07:09:11;11.05;;;8.57;;
44110;SDS011;29774;52.664;5.074;2024-02-28T07:11:37;20.33;;;11.18;;
44110;SDS011;29774;52.664;5.074;2024-02-28T07:14:03;18.30;;;11.90;;
44110;SDS011;29774;52.664;5.074;2024-02-28T07:16:30;18.17;;;11.77;;
44110;SDS011;29774;52.664;5.074;2024-02-28T07:18:57;17.27;;;10.30;;
44110;SDS011;29774;52.664;5.074;2024-02-28T07:21:23;18.98;;;11.35;;
44110;SDS011;29774;52.664;5.074;2024-02-28T07:23:49;22.05;;;12.20;;
44110;SDS011;29774;52.664;5.074;2024-02-28T07:26:15;16.83;;;11.52;;
44110;SDS011;29774;52.664;5.074;2024-02-28T07:28:41;18.38;;;12.30;;
44110;SDS011;29774;52.664;5.074;2024-02-28T07:31:07;16.33;;;11.95;;
44110;SDS011;29774;52.664;5.074;2024-02-28T07:33:40;21.35;;;11.35;;
44110;SDS011;29774;52.664;5.074;2024-02-28T07:36:05;19.15;;;12.48;;
44110;SDS011;29774;52.664;5.074;2024-02-28T07:38:31;18.08;;;11.60;;
44110;SDS011;29774;52.664;5.074;2024-02-28T07:40:57;16.10;;;11.70;;
44110;SDS011;29774;52.664;5.074;2024-02-28T07:43:23;18.77;;;12.38;;
44110;SDS011;29774;52.664;5.074;2024-02-28T07:45:49;15.32;;;10.57;;
44110;SDS011;29774;52.664;5.074;2024-02-28T07:48:14;23.73;;;12.45;;
44110;SDS011;29774;52.664;5.074;2024-02-28T07:50:42;24.02;;;13.30;;
44110;SDS011;29774;52.664;5.074;2024-02-28T07:53:12;17.00;;;12.13;;
44110;SDS011;29774;52.664;5.074;2024-02-28T07:55:38;20.95;;;12.75;;
44110;SDS011;29774;52.664;5.074;2024-02-28T07:58:04;21.77;;;12.68;;
44110;SDS011;29774;52.664;5.074;2024-02-28T08:00:31;14.75;;;10.40;;
44110;SDS011;29774;52.664;5.074;2024-02-28T08:02:58;22.88;;;13.10;;
44110;SDS011;29774;52.664;5.074;2024-02-28T08:05:24;18.75;;;11.38;;
44110;SDS011;29774;52.664;5.074;2024-02-28T08:07:50;16.70;;;10.75;;
44110;SDS011;29774;52.664;5.074;2024-02-28T08:10:15;16.00;;;11.13;;
44110;SDS011;29774;52.664;5.074;2024-02-28T08:12:41;17.73;;;12.48;;
44110;SDS011;29774;52.664;5.074;2024-02-28T08:15:07;18.17;;;11.65;;
44110;SDS011;29774;52.664;5.074;2024-02-28T08:17:32;16.73;;;11.82;;
44110;SDS011;29774;52.664;5.074;2024-02-28T08:19:58;14.38;;;10.52;;
44110;SDS011;29774;52.664;5.074;2024-02-28T08:22:24;13.27;;;8.65;;
44110;SDS011;29774;52.664;5.074;2024-02-28T08:24:53;19.58;;;10.65;;
44110;SDS011;29774;52.664;5.074;2024-02-28T08:27:19;15.50;;;9.80;;
44110;SDS011;29774;52.664;5.074;2024-02-28T08:29:45;19.17;;;10.48;;
44110;SDS011;29774;52.664;5.074;2024-02-28T08:32:12;13.05;;;8.48;;
44110;SDS011;29774;52.664;5.074;2024-02-28T08:34:38;15.57;;;9.35;;
44110;SDS011;29774;52.664;5.074;2024-02-28T08:37:04;15.00;;;9.38;;
44110;SDS011;29774;52.664;5.074;2024-02-28T08:39:29;17.42;;;9.77;;
44110;SDS011;29774;52.664;5.074;2024-02-28T08:41:55;16.95;;;11.18;;
44110;SDS011;29774;52.664;5.074;2024-02-28T08:44:20;18.02;;;11.95;;
44110;SDS011;29774;52.664;5.074;2024-02-28T08:46:47;16.00;;;10.27;;
44110;SDS011;29774;52.664;5.074;2024-02-28T08:49:13;18.50;;;11.50;;
44110;SDS011;29774;52.664;5.074;2024-02-28T08:51:39;19.80;;;10.45;;
44110;SDS011;29774;52.664;5.074;2024-02-28T08:54:05;13.27;;;8.82;;
44110;SDS011;29774;52.664;5.074;2024-02-28T08:56:31;18.67;;;10.60;;
44110;SDS011;29774;52.664;5.074;2024-02-28T08:58:58;15.85;;;11.07;;
44110;SDS011;29774;52.664;5.074;2024-02-28T09:01:24;13.90;;;7.75;;
44110;SDS011;29774;52.664;5.074;2024-02-28T09:03:50;16.75;;;9.35;;
44110;SDS011;29774;52.664;5.074;2024-02-28T09:06:15;20.23;;;10.80;;
44110;SDS011;29774;52.664;5.074;2024-02-28T09:08:41;15.73;;;10.30;;
44110;SDS011;29774;52.664;5.074;2024-02-28T09:11:07;11.68;;;8.10;;
44110;SDS011;29774;52.664;5.074;2024-02-28T09:13:33;21.48;;;13.05;;
44110;SDS011;29774;52.664;5.074;2024-02-28T09:16:00;16.02;;;11.30;;
44110;SDS011;29774;52.664;5.074;2024-02-28T09:18:26;14.93;;;10.07;;
44110;SDS011;29774;52.664;5.074;2024-02-28T09:20:52;13.30;;;9.70;;
44110;SDS011;29774;52.664;5.074;2024-02-28T09:23:18;20.65;;;11.07;;
44110;SDS011;29774;52.664;5.074;2024-02-28T09:25:44;16.63;;;10.52;;
44110;SDS011;29774;52.664;5.074;2024-02-28T09:28:10;14.82;;;11.80;;
44110;SDS011;29774;52.664;5.074;2024-02-28T09:30:38;19.95;;;12.98;;
44110;SDS011;29774;52.664;5.074;2024-02-28T09:33:04;17.02;;;13.00;;
44110;SDS011;29774;52.664;5.074;2024-02-28T09:35:30;22.10;;;13.88;;
44110;SDS011;29774;52.664;5.074;2024-02-28T09:37:55;15.90;;;10.98;;
44110;SDS011;29774;52.664;5.074;2024-02-28T09:40:21;15.75;;;10.05;;
44110;SDS011;29774;52.664;5.074;2024-02-28T09:42:52;14.05;;;9.30;;
44110;SDS011;29774;52.664;5.074;2024-02-28T09:45:21;7.25;;;5.05;;
44110;SDS011;29774;52.664;5.074;2024-02-28T09:47:48;12.35;;;8.27;;
44110;SDS011;29774;52.664;5.074;2024-02-28T09:50:14;14.02;;;10.20;;
44110;SDS011;29774;52.664;5.074;2024-02-28T09:52:40;16.63;;;8.52;;
44110;SDS011;29774;52.664;5.074;2024-02-28T09:55:06;8.65;;;7.00;;
44110;SDS011;29774;52.664;5.074;2024-02-28T09:57:32;12.30;;;8.25;;
44110;SDS011;29774;52.664;5.074;2024-02-28T10:00:00;10.10;;;6.90;;
44110;SDS011;29774;52.664;5.074;2024-02-28T10:02:25;11.02;;;8.18;;
44110;SDS011;29774;52.664;5.074;2024-02-28T10:04:52;9.80;;;7.03;;
44110;SDS011;29774;52.664;5.074;2024-02-28T10:07:18;7.43;;;5.47;;
44110;SDS011;29774;52.664;5.074;2024-02-28T10:09:44;11.88;;;6.30;;
44110;SDS011;29774;52.664;5.074;2024-02-28T10:12:11;17.70;;;10.60;;
44110;SDS011;29774;52.664;5.074;2024-02-28T10:14:37;12.05;;;8.02;;
44110;SDS011;29774;52.664;5.074;2024-02-28T10:17:03;15.40;;;11.15;;
44110;SDS011;29774;52.664;5.074;2024-02-28T10:19:30;11.50;;;8.60;;
44110;SDS011;29774;52.664;5.074;2024-02-28T10:21:55;8.00;;;5.72;;
44110;SDS011;29774;52.664;5.074;2024-02-28T10:24:23;6.30;;;4.20;;
44110;SDS011;29774;52.664;5.074;2024-02-28T10:26:49;8.13;;;5.07;;
44110;SDS011;29774;52.664;5.074;2024-02-28T10:29:22;7.50;;;5.75;;
44110;SDS011;29774;52.664;5.074;2024-02-28T10:31:48;18.95;;;10.63;;
44110;SDS011;29774;52.664;5.074;2024-02-28T10:34:15;12.02;;;8.63;;
44110;SDS011;29774;52.664;5.074;2024-02-28T10:36:42;19.38;;;11.23;;
44110;SDS011;29774;52.664;5.074;2024-02-28T10:39:09;10.68;;;7.78;;
44110;SDS011;29774;52.664;5.074;2024-02-28T10:41:40;9.20;;;6.85;;
44110;SDS011;29774;52.664;5.074;2024-02-28T10:44:07;15.07;;;11.57;;
44110;SDS011;29774;52.664;5.074;2024-02-28T10:46:35;14.90;;;10.25;;
44110;SDS011;29774;52.664;5.074;2024-02-28T10:49:06;16.58;;;10.82;;
44110;SDS011;29774;52.664;5.074;2024-02-28T10:51:36;15.73;;;9.88;;
44110;SDS011;29774;52.664;5.074;2024-02-28T10:54:09;13.95;;;9.15;;
44110;SDS011;29774;52.664;5.074;2024-02-28T10:56:39;15.60;;;10.00;;
44110;SDS011;29774;52.664;5.074;2024-02-28T10:59:06;14.68;;;11.88;;
44110;SDS011;29774;52.664;5.074;2024-02-28T11:01:34;14.02;;;11.43;;
44110;SDS011;29774;52.664;5.074;2024-02-28T11:04:04;12.63;;;9.32;;
44110;SDS011;29774;52.664;5.074;2024-02-28T11:06:30;16.60;;;11.70;;
44110;SDS011;29774;52.664;5.074;2024-02-28T11:08:58;13.07;;;9.52;;
44110;SDS011;29774;52.664;5.074;2024-02-28T11:11:24;14.30;;;9.63;;
44110;SDS011;29774;52.664;5.074;2024-02-28T11:13:58;16.85;;;11.70;;
44110;SDS011;29774;52.664;5.074;2024-02-28T11:16:31;10.73;;;7.57;;
44110;SDS011;29774;52.664;5.074;2024-02-28T11:18:57;12.88;;;7.97;;
44110;SDS011;29774;52.664;5.074;2024-02-28T11:21:24;7.60;;;6.68;;
44110;SDS011;29774;52.664;5.074;2024-02-28T11:23:57;18.83;;;11.85;;
44110;SDS011;29774;52.664;5.074;2024-02-28T11:26:24;12.45;;;9.85;;
44110;SDS011;29774;52.664;5.074;2024-02-28T11:28:50;9.35;;;7.32;;
44110;SDS011;29774;52.664;5.074;2024-02-28T11:31:16;13.60;;;8.15;;
44110;SDS011;29774;52.664;5.074;2024-02-28T11:33:44;11.57;;;8.30;;
44110;SDS011;29774;52.664;5.074;2024-02-28T11:36:11;17.20;;;11.70;;
44110;SDS011;29774;52.664;5.074;2024-02-28T11:38:38;12.98;;;9.23;;
44110;SDS011;29774;52.664;5.074;2024-02-28T11:41:04;12.55;;;8.30;;
44110;SDS011;29774;52.664;5.074;2024-02-28T11:43:30;16.83;;;10.23;;
44110;SDS011;29774;52.664;5.074;2024-02-28T11:45:57;14.43;;;8.90;;
44110;SDS011;29774;52.664;5.074;2024-02-28T11:48:25;7.55;;;6.22;;
44110;SDS011;29774;52.664;5.074;2024-02-28T11:50:52;13.38;;;9.13;;
44110;SDS011;29774;52.664;5.074;2024-02-28T11:53:19;14.25;;;8.13;;
44110;SDS011;29774;52.664;5.074;2024-02-28T11:55:45;13.00;;;8.90;;
44110;SDS011;29774;52.664;5.074;2024-02-28T11:58:13;15.27;;;9.73;;
44110;SDS011;29774;52.664;5.074;2024-02-28T12:00:57;11.75;;;8.23;;
44110;SDS011;29774;52.664;5.074;2024-02-28T12:03:23;16.30;;;10.05;;
44110;SDS011;29774;52.664;5.074;2024-02-28T12:05:50;18.35;;;12.18;;
44110;SDS011;29774;52.664;5.074;2024-02-28T12:08:17;8.27;;;6.68;;
44110;SDS011;29774;52.664;5.074;2024-02-28T12:10:44;16.02;;;11.18;;
44110;SDS011;29774;52.664;5.074;2024-02-28T12:13:10;14.20;;;8.55;;
44110;SDS011;29774;52.664;5.074;2024-02-28T12:15:38;12.68;;;8.73;;
44110;SDS011;29774;52.664;5.074;2024-02-28T12:18:09;14.30;;;9.40;;
44110;SDS011;29774;52.664;5.074;2024-02-28T12:20:35;14.85;;;9.45;;
44110;SDS011;29774;52.664;5.074;2024-02-28T12:23:03;11.90;;;7.72;;
44110;SDS011;29774;52.664;5.074;2024-02-28T12:25:33;13.52;;;9.65;;
44110;SDS011;29774;52.664;5.074;2024-02-28T12:27:59;10.77;;;7.68;;
44110;SDS011;29774;52.664;5.074;2024-02-28T12:30:26;9.43;;;7.60;;
44110;SDS011;29774;52.664;5.074;2024-02-28T12:32:52;9.73;;;6.57;;
44110;SDS011;29774;52.664;5.074;2024-02-28T12:35:17;9.70;;;7.80;;
44110;SDS011;29774;52.664;5.074;2024-02-28T12:37:43;11.18;;;6.05;;
44110;SDS011;29774;52.664;5.074;2024-02-28T12:40:09;16.15;;;8.60;;
44110;SDS011;29774;52.664;5.074;2024-02-28T12:42:35;11.48;;;7.28;;
44110;SDS011;29774;52.664;5.074;2024-02-28T12:45:01;8.70;;;7.03;;
44110;SDS011;29774;52.664;5.074;2024-02-28T12:47:28;7.55;;;5.95;;
44110;SDS011;29774;52.664;5.074;2024-02-28T12:49:55;9.27;;;6.15;;
44110;SDS011;29774;52.664;5.074;2024-02-28T12:52:21;5.47;;;4.72;;
44110;SDS011;29774;52.664;5.074;2024-02-28T12:54:47;7.13;;;6.43;;
44110;SDS011;29774;52.664;5.074;2024-02-28T12:57:12;11.30;;;8.27;;
44110;SDS011;29774;52.664;5.074;2024-02-28T12:59:41;20.85;;;10.90;;
44110;SDS011;29774;52.664;5.074;2024-02-28T13:02:07;10.18;;;7.43;;
44110;SDS011;29774;52.664;5.074;2024-02-28T13:04:34;12.90;;;8.75;;
44110;SDS011;29774;52.664;5.074;2024-02-28T13:07:00;7.65;;;6.13;;
44110;SDS011;29774;52.664;5.074;2024-02-28T13:09:26;7.88;;;6.07;;
44110;SDS011;29774;52.664;5.074;2024-02-28T13:11:51;8.48;;;6.32;;
44110;SDS011;29774;52.664;5.074;2024-02-28T13:14:17;11.23;;;8.88;;
44110;SDS011;29774;52.664;5.074;2024-02-28T13:16:44;9.27;;;6.93;;
44110;SDS011;29774;52.664;5.074;2024-02-28T13:19:09;9.13;;;7.90;;
44110;SDS011;29774;52.664;5.074;2024-02-28T13:21:35;7.43;;;6.18;;
44110;SDS011;29774;52.664;5.074;2024-02-28T13:24:02;6.18;;;5.47;;
44110;SDS011;29774;52.664;5.074;2024-02-28T13:26:28;6.57;;;5.50;;
44110;SDS011;29774;52.664;5.074;2024-02-28T13:28:54;6.50;;;5.30;;
44110;SDS011;29774;52.664;5.074;2024-02-28T13:31:20;5.97;;;5.38;;
44110;SDS011;29774;52.664;5.074;2024-02-28T13:33:45;6.93;;;5.85;;
44110;SDS011;29774;52.664;5.074;2024-02-28T13:36:13;6.15;;;5.03;;
44110;SDS011;29774;52.664;5.074;2024-02-28T13:38:39;6.70;;;5.90;;
44110;SDS011;29774;52.664;5.074;2024-02-28T13:41:04;4.68;;;4.20;;
44110;SDS011;29774;52.664;5.074;2024-02-28T13:43:30;6.25;;;5.55;;
44110;SDS011;29774;52.664;5.074;2024-02-28T13:45:56;5.97;;;5.00;;
44110;SDS011;29774;52.664;5.074;2024-02-28T13:48:25;10.18;;;7.63;;
44110;SDS011;29774;52.664;5.074;2024-02-28T13:50:53;8.98;;;5.70;;
44110;SDS011;29774;52.664;5.074;2024-02-28T13:53:19;7.10;;;5.32;;
44110;SDS011;29774;52.664;5.074;2024-02-28T13:55:45;7.03;;;5.50;;
44110;SDS011;29774;52.664;5.074;2024-02-28T13:58:11;9.45;;;8.45;;
44110;SDS011;29774;52.664;5.074;2024-02-28T14:00:37;8.35;;;5.82;;
44110;SDS011;29774;52.664;5.074;2024-02-28T14:03:04;8.60;;;6.65;;
44110;SDS011;29774;52.664;5.074;2024-02-28T14:05:31;6.13;;;5.28;;
44110;SDS011;29774;52.664;5.074;2024-02-28T14:07:57;7.40;;;6.60;;
44110;SDS011;29774;52.664;5.074;2024-02-28T14:10:23;13.48;;;9.90;;
44110;SDS011;29774;52.664;5.074;2024-02-28T14:12:49;16.30;;;12.07;;
44110;SDS011;29774;52.664;5.074;2024-02-28T14:15:17;15.27;;;12.02;;
44110;SDS011;29774;52.664;5.074;2024-02-28T14:17:46;14.25;;;9.35;;
44110;SDS011;29774;52.664;5.074;2024-02-28T14:20:12;15.73;;;10.60;;
44110;SDS011;29774;52.664;5.074;2024-02-28T14:22:38;13.50;;;11.02;;
44110;SDS011;29774;52.664;5.074;2024-02-28T14:25:07;16.38;;;12.63;;
44110;SDS011;29774;52.664;5.074;2024-02-28T14:27:36;16.33;;;12.68;;
44110;SDS011;29774;52.664;5.074;2024-02-28T14:30:02;15.98;;;11.95;;
44110;SDS011;29774;52.664;5.074;2024-02-28T14:32:32;14.13;;;10.60;;